sensor_id;sensor_type;location;lat;lon;timestamp;pressure;altitude;pressure_sealevel;temperature;humidity
80640;BME280;69992;60.170;24.692;2023-06-22T00:01:09;101068.72;;;12.74;14.10
80640;BME280;69992;60.170;24.692;2023-06-22T00:03:35;101065.02;;;12.68;14.07
80640;BME280;69992;60.170;24.692;2023-06-22T00:06:00;101059.32;;;12.58;14.07
80640;BME280;69992;60.170;24.692;2023-06-22T00:08:26;101055.76;;;11.47;14.11
80640;BME280;69992;60.170;24.692;2023-06-22T00:10:51;101057.15;;;11.36;14.11
80640;BME280;69992;60.170;24.692;2023-06-22T00:13:17;101054.87;;;12.25;14.12
80640;BME280;69992;60.170;24.692;2023-06-22T00:15:42;101052.47;;;11.19;14.12
80640;BME280;69992;60.170;24.692;2023-06-22T00:18:09;101051.18;;;11.14;14.11
80640;BME280;69992;60.170;24.692;2023-06-22T00:20:34;101045.73;;;11.14;14.11
80640;BME280;69992;60.170;24.692;2023-06-22T00:22:59;101047.56;;;11.07;14.13
80640;BME280;69992;60.170;24.692;2023-06-22T00:25:25;101045.80;;;11.93;14.11
80640;BME280;69992;60.170;24.692;2023-06-22T00:27:50;101043.57;;;11.85;14.11
80640;BME280;69992;60.170;24.692;2023-06-22T00:30:15;101039.01;;;11.75;14.12
80640;BME280;69992;60.170;24.692;2023-06-22T00:32:40;101037.62;;;11.62;14.13
80640;BME280;69992;60.170;24.692;2023-06-22T00:35:07;101036.67;;;11.51;14.13
80640;BME280;69992;60.170;24.692;2023-06-22T00:37:31;101036.39;;;11.42;14.17
80640;BME280;69992;60.170;24.692;2023-06-22T00:39:57;101035.36;;;11.35;14.16
80640;BME280;69992;60.170;24.692;2023-06-22T00:42:23;101034.63;;;11.33;14.15
80640;BME280;69992;60.170;24.692;2023-06-22T00:44:48;101032.72;;;11.27;14.14
80640;BME280;69992;60.170;24.692;2023-06-22T00:47:16;101037.26;;;11.19;14.16
80640;BME280;69992;60.170;24.692;2023-06-22T00:49:40;101040.76;;;11.16;14.15
80640;BME280;69992;60.170;24.692;2023-06-22T00:52:06;101042.66;;;12.09;14.19
80640;BME280;69992;60.170;24.692;2023-06-22T00:54:30;101036.48;;;11.06;14.16
80640;BME280;69992;60.170;24.692;2023-06-22T00:56:57;101032.30;;;11.07;14.15
80640;BME280;69992;60.170;24.692;2023-06-22T00:59:21;101028.51;;;11.05;14.15
80640;BME280;69992;60.170;24.692;2023-06-22T01:01:47;101025.86;;;10.97;14.15
80640;BME280;69992;60.170;24.692;2023-06-22T01:04:12;101023.50;;;10.96;14.15
80640;BME280;69992;60.170;24.692;2023-06-22T01:06:45;101019.38;;;11.88;14.16
80640;BME280;69992;60.170;24.692;2023-06-22T01:09:08;101016.61;;;11.81;14.16
80640;BME280;69992;60.170;24.692;2023-06-22T01:11:34;101012.83;;;10.78;14.17
80640;BME280;69992;60.170;24.692;2023-06-22T01:14:00;101010.57;;;11.73;14.16
80640;BME280;69992;60.170;24.692;2023-06-22T01:16:24;101004.39;;;11.65;14.17
80640;BME280;69992;60.170;24.692;2023-06-22T01:18:44;101005.14;;;11.60;14.17
80640;BME280;69992;60.170;24.692;2023-06-22T01:21:12;101001.81;;;10.55;14.21
80640;BME280;69992;60.170;24.692;2023-06-22T01:23:47;100996.13;;;10.56;14.19
80640;BME280;69992;60.170;24.692;2023-06-22T01:26:05;100993.38;;;11.61;14.15
80640;BME280;69992;60.170;24.692;2023-06-22T01:28:39;100992.75;;;11.54;14.16
80640;BME280;69992;60.170;24.692;2023-06-22T01:30:51;100990.20;;;10.50;14.18
80640;BME280;69992;60.170;24.692;2023-06-22T01:33:16;100989.70;;;12.35;14.16
80640;BME280;69992;60.170;24.692;2023-06-22T01:35:42;100992.30;;;11.45;14.14
80640;BME280;69992;60.170;24.692;2023-06-22T01:38:08;100991.69;;;10.39;14.16
80640;BME280;69992;60.170;24.692;2023-06-22T01:40:33;100990.58;;;11.28;14.17
80640;BME280;69992;60.170;24.692;2023-06-22T01:42:57;100988.43;;;11.22;14.18
80640;BME280;69992;60.170;24.692;2023-06-22T01:45:23;100987.03;;;11.20;14.24
80640;BME280;69992;60.170;24.692;2023-06-22T01:47:48;100986.21;;;10.13;14.24
80640;BME280;69992;60.170;24.692;2023-06-22T01:50:14;100980.46;;;12.08;14.25
80640;BME280;69992;60.170;24.692;2023-06-22T01:52:39;100978.87;;;11.10;14.23
80640;BME280;69992;60.170;24.692;2023-06-22T01:55:05;100976.48;;;11.15;14.22
80640;BME280;69992;60.170;24.692;2023-06-22T01:57:31;100972.61;;;10.20;14.21
80640;BME280;69992;60.170;24.692;2023-06-22T02:00:00;100968.39;;;11.23;14.23
80640;BME280;69992;60.170;24.692;2023-06-22T02:02:21;100964.08;;;12.22;14.23
80640;BME280;69992;60.170;24.692;2023-06-22T02:04:48;100964.32;;;12.29;14.22
80640;BME280;69992;60.170;24.692;2023-06-22T02:07:14;100962.56;;;11.42;14.24
80640;BME280;69992;60.170;24.692;2023-06-22T02:09:37;100959.22;;;11.51;14.23
80640;BME280;69992;60.170;24.692;2023-06-22T02:12:04;100958.09;;;10.63;14.23
80640;BME280;69992;60.170;24.692;2023-06-22T02:14:29;100952.88;;;10.77;14.23
80640;BME280;69992;60.170;24.692;2023-06-22T02:16:53;100954.00;;;11.85;14.20
80640;BME280;69992;60.170;24.692;2023-06-22T02:19:23;100952.58;;;11.89;14.22
80640;BME280;69992;60.170;24.692;2023-06-22T02:21:45;100953.10;;;12.93;14.21
80640;BME280;69992;60.170;24.692;2023-06-22T02:24:10;100951.94;;;12.06;14.20
80640;BME280;69992;60.170;24.692;2023-06-22T02:26:37;100953.51;;;11.14;14.26
80640;BME280;69992;60.170;24.692;2023-06-22T02:29:01;100956.03;;;13.20;14.23
80640;BME280;69992;60.170;24.692;2023-06-22T02:31:26;100957.72;;;10.40;14.22
80640;BME280;69992;60.170;24.692;2023-06-22T02:33:52;100955.39;;;12.54;14.21
80640;BME280;69992;60.170;24.692;2023-06-22T02:36:17;100954.57;;;11.68;14.23
80640;BME280;69992;60.170;24.692;2023-06-22T02:38:44;100955.04;;;11.79;14.25
80640;BME280;69992;60.170;24.692;2023-06-22T02:41:08;100951.24;;;11.94;14.23
80640;BME280;69992;60.170;24.692;2023-06-22T02:43:34;100950.21;;;11.07;14.23
80640;BME280;69992;60.170;24.692;2023-06-22T02:45:59;100950.95;;;13.09;14.24
80640;BME280;69992;60.170;24.692;2023-06-22T02:48:25;100947.81;;;12.20;14.24
80640;BME280;69992;60.170;24.692;2023-06-22T02:50:50;100948.34;;;11.36;14.25
80640;BME280;69992;60.170;24.692;2023-06-22T02:53:15;100947.97;;;12.46;14.23
80640;BME280;69992;60.170;24.692;2023-06-22T02:55:41;100949.56;;;12.59;14.23
80640;BME280;69992;60.170;24.692;2023-06-22T02:58:06;100949.45;;;12.66;14.24
80640;BME280;69992;60.170;24.692;2023-06-22T03:00:32;100946.80;;;12.69;14.28
80640;BME280;69992;60.170;24.692;2023-06-22T03:02:57;100947.29;;;12.81;14.26
80640;BME280;69992;60.170;24.692;2023-06-22T03:05:23;100946.14;;;12.91;14.27
80640;BME280;69992;60.170;24.692;2023-06-22T03:07:48;100945.70;;;12.06;14.27
80640;BME280;69992;60.170;24.692;2023-06-22T03:10:14;100946.83;;;13.15;14.28
80640;BME280;69992;60.170;24.692;2023-06-22T03:12:40;100949.53;;;13.28;14.28
80640;BME280;69992;60.170;24.692;2023-06-22T03:15:06;100952.20;;;12.43;14.25
80640;BME280;69992;60.170;24.692;2023-06-22T03:17:30;100956.32;;;12.59;14.26
80640;BME280;69992;60.170;24.692;2023-06-22T03:19:55;100955.21;;;13.72;14.27
80640;BME280;69992;60.170;24.692;2023-06-22T03:22:21;100955.14;;;12.92;14.24
80640;BME280;69992;60.170;24.692;2023-06-22T03:24:46;100949.71;;;14.06;14.26
80640;BME280;69992;60.170;24.692;2023-06-22T03:27:11;100949.30;;;13.30;14.25
80640;BME280;69992;60.170;24.692;2023-06-22T03:29:37;100949.57;;;12.57;14.26
80640;BME280;69992;60.170;24.692;2023-06-22T03:32:02;100950.01;;;12.87;14.24
80640;BME280;69992;60.170;24.692;2023-06-22T03:34:27;100951.41;;;12.22;14.24
80640;BME280;69992;60.170;24.692;2023-06-22T03:36:52;100954.15;;;13.60;14.22
80640;BME280;69992;60.170;24.692;2023-06-22T03:39:18;100953.70;;;13.97;14.20
80640;BME280;69992;60.170;24.692;2023-06-22T03:41:43;100957.25;;;14.41;14.17
80640;BME280;69992;60.170;24.692;2023-06-22T03:44:08;100950.66;;;14.82;14.15
80640;BME280;69992;60.170;24.692;2023-06-22T03:46:34;100948.84;;;15.20;14.15
80640;BME280;69992;60.170;24.692;2023-06-22T03:48:59;100951.95;;;13.62;14.13
80640;BME280;69992;60.170;24.692;2023-06-22T03:51:25;100951.49;;;14.98;14.13
80640;BME280;69992;60.170;24.692;2023-06-22T03:53:51;100955.59;;;14.39;14.14
80640;BME280;69992;60.170;24.692;2023-06-22T03:56:16;100953.30;;;15.73;14.11
80640;BME280;69992;60.170;24.692;2023-06-22T03:58:41;100951.10;;;15.08;14.08
80640;BME280;69992;60.170;24.692;2023-06-22T04:01:06;100943.66;;;15.27;14.13
80640;BME280;69992;60.170;24.692;2023-06-22T04:03:32;100940.97;;;15.42;14.14
80640;BME280;69992;60.170;24.692;2023-06-22T04:05:58;100942.20;;;15.65;14.16
80640;BME280;69992;60.170;24.692;2023-06-22T04:08:24;100938.97;;;14.88;14.18
80640;BME280;69992;60.170;24.692;2023-06-22T04:10:49;100932.53;;;15.13;14.18
80640;BME280;69992;60.170;24.692;2023-06-22T04:13:15;100930.23;;;16.35;14.19
80640;BME280;69992;60.170;24.692;2023-06-22T04:15:40;100927.24;;;15.60;14.19
80640;BME280;69992;60.170;24.692;2023-06-22T04:18:06;100928.23;;;16.79;14.20
80640;BME280;69992;60.170;24.692;2023-06-22T04:20:31;100931.02;;;15.10;14.18
80640;BME280;69992;60.170;24.692;2023-06-22T04:22:56;100925.12;;;15.30;14.20
80640;BME280;69992;60.170;24.692;2023-06-22T04:25:22;100920.72;;;17.49;14.21
80640;BME280;69992;60.170;24.692;2023-06-22T04:27:47;100920.30;;;15.86;14.19
80640;BME280;69992;60.170;24.692;2023-06-22T04:30:13;100921.85;;;16.23;14.19
80640;BME280;69992;60.170;24.692;2023-06-22T04:32:38;100923.94;;;16.47;14.21
80640;BME280;69992;60.170;24.692;2023-06-22T04:35:04;100924.90;;;15.84;14.21
80640;BME280;69992;60.170;24.692;2023-06-22T04:37:28;100929.08;;;17.13;14.23
80640;BME280;69992;60.170;24.692;2023-06-22T04:39:54;100931.61;;;17.49;14.19
80640;BME280;69992;60.170;24.692;2023-06-22T04:42:19;100929.50;;;16.79;14.19
80640;BME280;69992;60.170;24.692;2023-06-22T04:44:45;100930.04;;;17.03;14.18
80640;BME280;69992;60.170;24.692;2023-06-22T04:47:10;100931.53;;;16.25;14.17
80640;BME280;69992;60.170;24.692;2023-06-22T04:49:36;100935.71;;;17.27;14.20
80640;BME280;69992;60.170;24.692;2023-06-22T04:52:03;100938.55;;;17.27;14.22
80640;BME280;69992;60.170;24.692;2023-06-22T04:54:27;100943.17;;;16.38;14.22
80640;BME280;69992;60.170;24.692;2023-06-22T04:56:52;100946.50;;;16.37;14.25
80640;BME280;69992;60.170;24.692;2023-06-22T04:59:17;100949.25;;;17.31;14.26
80640;BME280;69992;60.170;24.692;2023-06-22T05:01:42;100954.95;;;16.34;14.28
80640;BME280;69992;60.170;24.692;2023-06-22T05:04:08;100962.07;;;16.28;14.32
80640;BME280;69992;60.170;24.692;2023-06-22T05:06:33;100964.71;;;16.22;14.33
80640;BME280;69992;60.170;24.692;2023-06-22T05:08:59;100958.22;;;16.18;14.36
80640;BME280;69992;60.170;24.692;2023-06-22T05:11:26;100958.90;;;16.18;14.37
80640;BME280;69992;60.170;24.692;2023-06-22T05:13:50;100956.04;;;16.25;14.38
80640;BME280;69992;60.170;24.692;2023-06-22T05:16:16;100952.20;;;16.32;14.39
80640;BME280;69992;60.170;24.692;2023-06-22T05:18:41;100951.69;;;17.37;14.40
80640;BME280;69992;60.170;24.692;2023-06-22T05:21:06;100953.96;;;16.47;14.41
80640;BME280;69992;60.170;24.692;2023-06-22T05:23:31;100956.79;;;16.59;14.42
80640;BME280;69992;60.170;24.692;2023-06-22T05:25:57;100957.95;;;16.70;14.42
80640;BME280;69992;60.170;24.692;2023-06-22T05:28:22;100956.52;;;16.71;14.45
80640;BME280;69992;60.170;24.692;2023-06-22T05:30:48;100952.02;;;16.80;14.46
80640;BME280;69992;60.170;24.692;2023-06-22T05:33:13;100948.65;;;16.98;14.43
80640;BME280;69992;60.170;24.692;2023-06-22T05:35:39;100948.47;;;16.98;14.46
80640;BME280;69992;60.170;24.692;2023-06-22T05:38:04;100951.32;;;16.96;14.48
80640;BME280;69992;60.170;24.692;2023-06-22T05:40:30;100952.76;;;16.94;14.51
80640;BME280;69992;60.170;24.692;2023-06-22T05:42:56;100950.18;;;16.93;14.52
80640;BME280;69992;60.170;24.692;2023-06-22T05:45:21;100950.03;;;17.86;14.54
80640;BME280;69992;60.170;24.692;2023-06-22T05:47:46;100947.84;;;16.84;14.56
80640;BME280;69992;60.170;24.692;2023-06-22T05:50:12;100944.42;;;16.78;14.59
80640;BME280;69992;60.170;24.692;2023-06-22T05:52:37;100948.22;;;16.77;14.61
80640;BME280;69992;60.170;24.692;2023-06-22T05:55:03;100952.28;;;16.87;14.59
80640;BME280;69992;60.170;24.692;2023-06-22T05:57:29;100951.53;;;14.91;14.62
80640;BME280;69992;60.170;24.692;2023-06-22T05:59:54;100951.65;;;17.92;14.61
80640;BME280;69992;60.170;24.692;2023-06-22T06:02:19;100945.88;;;16.89;14.64
80640;BME280;69992;60.170;24.692;2023-06-22T06:04:44;100949.34;;;16.79;14.66
80640;BME280;69992;60.170;24.692;2023-06-22T06:07:10;100953.12;;;16.68;14.76
80640;BME280;69992;60.170;24.692;2023-06-22T06:09:35;100943.78;;;15.49;14.76
80640;BME280;69992;60.170;24.692;2023-06-22T06:12:00;100948.80;;;16.33;14.77
80640;BME280;69992;60.170;24.692;2023-06-22T06:14:26;100951.27;;;16.24;14.78
80640;BME280;69992;60.170;24.692;2023-06-22T06:16:52;100950.66;;;16.12;14.84
80640;BME280;69992;60.170;24.692;2023-06-22T06:19:17;100946.92;;;16.97;14.83
80640;BME280;69992;60.170;24.692;2023-06-22T06:21:43;100943.81;;;16.98;14.85
80640;BME280;69992;60.170;24.692;2023-06-22T06:24:08;100941.25;;;16.95;14.85
80640;BME280;69992;60.170;24.692;2023-06-22T06:26:34;100936.98;;;15.97;14.86
80640;BME280;69992;60.170;24.692;2023-06-22T06:29:00;100929.76;;;15.92;14.90
80640;BME280;69992;60.170;24.692;2023-06-22T06:31:25;100923.22;;;17.82;14.91
80640;BME280;69992;60.170;24.692;2023-06-22T06:33:51;100917.75;;;16.86;14.93
80640;BME280;69992;60.170;24.692;2023-06-22T06:36:16;100913.79;;;16.88;14.99
80640;BME280;69992;60.170;24.692;2023-06-22T06:38:41;100914.37;;;15.88;14.98
80640;BME280;69992;60.170;24.692;2023-06-22T06:41:06;100910.06;;;17.88;14.98
80640;BME280;69992;60.170;24.692;2023-06-22T06:43:32;100910.17;;;15.96;15.03
80640;BME280;69992;60.170;24.692;2023-06-22T06:45:58;100910.00;;;16.96;15.00
80640;BME280;69992;60.170;24.692;2023-06-22T06:48:24;100909.15;;;17.03;15.02
80640;BME280;69992;60.170;24.692;2023-06-22T06:50:49;100903.79;;;17.06;15.02
80640;BME280;69992;60.170;24.692;2023-06-22T06:53:14;100897.69;;;16.15;15.03
80640;BME280;69992;60.170;24.692;2023-06-22T06:55:39;100893.56;;;16.28;15.05
80640;BME280;69992;60.170;24.692;2023-06-22T06:58:05;100890.38;;;16.32;15.03
80640;BME280;69992;60.170;24.692;2023-06-22T07:00:30;100891.43;;;16.37;15.06
80640;BME280;69992;60.170;24.692;2023-06-22T07:02:56;100889.99;;;16.41;15.06
80640;BME280;69992;60.170;24.692;2023-06-22T07:05:21;100891.73;;;17.44;15.10
80640;BME280;69992;60.170;24.692;2023-06-22T07:07:46;100893.72;;;16.63;15.09
80640;BME280;69992;60.170;24.692;2023-06-22T07:10:12;100891.99;;;17.76;15.09
80640;BME280;69992;60.170;24.692;2023-06-22T07:12:37;100890.99;;;16.94;15.10
80640;BME280;69992;60.170;24.692;2023-06-22T07:15:04;100888.71;;;17.07;15.09
80640;BME280;69992;60.170;24.692;2023-06-22T07:17:27;100890.93;;;15.09;15.11
80640;BME280;69992;60.170;24.692;2023-06-22T07:19:53;100886.60;;;17.13;15.10
80640;BME280;69992;60.170;24.692;2023-06-22T07:22:18;100885.60;;;17.25;15.11
80640;BME280;69992;60.170;24.692;2023-06-22T07:24:44;100889.86;;;17.29;15.11
80640;BME280;69992;60.170;24.692;2023-06-22T07:27:09;100889.09;;;17.39;15.11
80640;BME280;69992;60.170;24.692;2023-06-22T07:29:35;100893.60;;;16.66;15.09
80640;BME280;69992;60.170;24.692;2023-06-22T07:32:01;100891.07;;;16.86;15.08
80640;BME280;69992;60.170;24.692;2023-06-22T07:34:26;100893.10;;;16.09;15.06
80640;BME280;69992;60.170;24.692;2023-06-22T07:36:51;100897.21;;;18.28;15.06
80640;BME280;69992;60.170;24.692;2023-06-22T07:39:17;100899.00;;;17.51;15.04
80640;BME280;69992;60.170;24.692;2023-06-22T07:41:42;100899.13;;;17.56;15.05
80640;BME280;69992;60.170;24.692;2023-06-22T07:44:07;100897.12;;;17.62;15.10
80640;BME280;69992;60.170;24.692;2023-06-22T07:46:33;100894.13;;;16.67;15.11
80640;BME280;69992;60.170;24.692;2023-06-22T07:48:58;100891.83;;;18.81;15.11
80640;BME280;69992;60.170;24.692;2023-06-22T07:51:24;100885.76;;;17.00;15.10
80640;BME280;69992;60.170;24.692;2023-06-22T07:53:49;100887.93;;;17.08;15.11
80640;BME280;69992;60.170;24.692;2023-06-22T07:56:14;100886.46;;;17.13;15.11
80640;BME280;69992;60.170;24.692;2023-06-22T07:58:40;100889.43;;;17.25;15.14
80640;BME280;69992;60.170;24.692;2023-06-22T08:01:05;100889.06;;;17.34;15.13
80640;BME280;69992;60.170;24.692;2023-06-22T08:03:30;100886.03;;;17.39;15.15
80640;BME280;69992;60.170;24.692;2023-06-22T08:05:55;100885.16;;;17.57;15.14
80640;BME280;69992;60.170;24.692;2023-06-22T08:08:21;100887.15;;;17.60;15.14
80640;BME280;69992;60.170;24.692;2023-06-22T08:10:46;100885.30;;;17.57;15.17
80640;BME280;69992;60.170;24.692;2023-06-22T08:13:12;100884.61;;;17.52;15.19
80640;BME280;69992;60.170;24.692;2023-06-22T08:15:37;100885.04;;;17.51;15.20
80640;BME280;69992;60.170;24.692;2023-06-22T08:18:03;100887.87;;;18.44;15.20
80640;BME280;69992;60.170;24.692;2023-06-22T08:20:28;100888.28;;;16.47;15.22
80640;BME280;69992;60.170;24.692;2023-06-22T08:22:55;100889.77;;;17.38;15.24
80640;BME280;69992;60.170;24.692;2023-06-22T08:25:18;100888.97;;;17.31;15.26
80640;BME280;69992;60.170;24.692;2023-06-22T08:27:45;100889.28;;;17.26;15.29
80640;BME280;69992;60.170;24.692;2023-06-22T08:30:10;100888.22;;;18.18;15.30
80640;BME280;69992;60.170;24.692;2023-06-22T08:32:35;100886.53;;;17.14;15.30
80640;BME280;69992;60.170;24.692;2023-06-22T08:35:01;100884.45;;;16.88;15.34
80640;BME280;69992;60.170;24.692;2023-06-22T08:37:26;100889.89;;;16.72;15.37
80640;BME280;69992;60.170;24.692;2023-06-22T08:39:52;100893.06;;;18.56;15.39
80640;BME280;69992;60.170;24.692;2023-06-22T08:42:17;100892.25;;;17.47;15.40
80640;BME280;69992;60.170;24.692;2023-06-22T08:44:43;100891.77;;;18.06;15.54
80640;BME280;69992;60.170;24.692;2023-06-22T08:47:08;100893.31;;;16.89;15.53
80640;BME280;69992;60.170;24.692;2023-06-22T08:49:33;100899.65;;;16.71;15.54
80640;BME280;69992;60.170;24.692;2023-06-22T08:51:59;100904.32;;;17.50;15.57
80640;BME280;69992;60.170;24.692;2023-06-22T08:54:25;100903.08;;;17.27;15.58
80640;BME280;69992;60.170;24.692;2023-06-22T08:56:49;100904.15;;;17.04;15.60
80640;BME280;69992;60.170;24.692;2023-06-22T08:59:15;100901.70;;;17.82;15.64
80640;BME280;69992;60.170;24.692;2023-06-22T09:01:40;100900.28;;;16.68;15.69
80640;BME280;69992;60.170;24.692;2023-06-22T09:04:06;100899.19;;;16.53;15.70
80640;BME280;69992;60.170;24.692;2023-06-22T09:06:31;100894.12;;;16.43;15.72
80640;BME280;69992;60.170;24.692;2023-06-22T09:08:57;100892.26;;;15.40;15.72
80640;BME280;69992;60.170;24.692;2023-06-22T09:11:22;100890.22;;;17.26;15.71
80640;BME280;69992;60.170;24.692;2023-06-22T09:13:47;100888.65;;;17.11;15.73
80640;BME280;69992;60.170;24.692;2023-06-22T09:16:13;100885.72;;;16.08;15.74
80640;BME280;69992;60.170;24.692;2023-06-22T09:18:39;100886.04;;;16.04;15.73
80640;BME280;69992;60.170;24.692;2023-06-22T09:21:04;100881.87;;;15.99;15.78
80640;BME280;69992;60.170;24.692;2023-06-22T09:23:29;100878.64;;;15.95;15.77
80640;BME280;69992;60.170;24.692;2023-06-22T09:25:54;100879.02;;;15.93;15.76
80640;BME280;69992;60.170;24.692;2023-06-22T09:28:20;100881.44;;;16.78;15.79
80640;BME280;69992;60.170;24.692;2023-06-22T09:30:46;100881.88;;;15.74;15.78
80640;BME280;69992;60.170;24.692;2023-06-22T09:33:11;100878.14;;;17.62;15.80
80640;BME280;69992;60.170;24.692;2023-06-22T09:35:36;100878.37;;;16.49;15.84
80640;BME280;69992;60.170;24.692;2023-06-22T09:38:02;100873.28;;;16.40;15.85
80640;BME280;69992;60.170;24.692;2023-06-22T09:40:28;100872.62;;;15.43;15.83
80640;BME280;69992;60.170;24.692;2023-06-22T09:42:53;100868.46;;;16.34;15.81
80640;BME280;69992;60.170;24.692;2023-06-22T09:45:19;100867.88;;;15.36;15.82
80640;BME280;69992;60.170;24.692;2023-06-22T09:47:44;100862.63;;;16.26;15.86
80640;BME280;69992;60.170;24.692;2023-06-22T09:50:10;100857.52;;;16.25;15.84
80640;BME280;69992;60.170;24.692;2023-06-22T09:52:35;100853.70;;;15.23;15.84
80640;BME280;69992;60.170;24.692;2023-06-22T09:55:00;100850.58;;;16.31;15.84
80640;BME280;69992;60.170;24.692;2023-06-22T09:57:26;100847.96;;;17.43;15.83
80640;BME280;69992;60.170;24.692;2023-06-22T09:59:51;100844.56;;;16.57;15.83
80640;BME280;69992;60.170;24.692;2023-06-22T10:02:16;100845.55;;;15.73;15.84
80640;BME280;69992;60.170;24.692;2023-06-22T10:04:41;100848.76;;;16.90;15.83
80640;BME280;69992;60.170;24.692;2023-06-22T10:07:07;100850.53;;;17.14;15.80
80640;BME280;69992;60.170;24.692;2023-06-22T10:09:32;100849.47;;;17.39;15.78
80640;BME280;69992;60.170;24.692;2023-06-22T10:11:58;100844.98;;;16.55;15.78
80640;BME280;69992;60.170;24.692;2023-06-22T10:14:23;100840.69;;;16.89;15.77
80640;BME280;69992;60.170;24.692;2023-06-22T10:16:48;100835.16;;;17.36;15.72
80640;BME280;69992;60.170;24.692;2023-06-22T10:19:13;100836.25;;;17.67;15.72
80640;BME280;69992;60.170;24.692;2023-06-22T10:21:39;100838.98;;;18.03;15.71
80640;BME280;69992;60.170;24.692;2023-06-22T10:24:05;100837.18;;;18.38;15.67
80640;BME280;69992;60.170;24.692;2023-06-22T10:26:30;100837.09;;;16.76;15.63
80640;BME280;69992;60.170;24.692;2023-06-22T10:28:55;100839.77;;;17.00;15.61
80640;BME280;69992;60.170;24.692;2023-06-22T10:31:21;100842.30;;;18.14;15.61
80640;BME280;69992;60.170;24.692;2023-06-22T10:33:47;100840.19;;;19.08;15.63
80640;BME280;69992;60.170;24.692;2023-06-22T10:36:12;100836.72;;;17.22;15.76
80640;BME280;69992;60.170;24.692;2023-06-22T10:38:37;100836.34;;;17.12;15.70
80640;BME280;69992;60.170;24.692;2023-06-22T10:41:03;100836.95;;;18.22;15.68
80640;BME280;69992;60.170;24.692;2023-06-22T10:43:28;100838.02;;;16.48;15.68
80640;BME280;69992;60.170;24.692;2023-06-22T10:45:53;100839.37;;;17.57;15.69
80640;BME280;69992;60.170;24.692;2023-06-22T10:48:19;100836.94;;;17.67;15.69
80640;BME280;69992;60.170;24.692;2023-06-22T10:50:46;100835.35;;;17.78;15.70
80640;BME280;69992;60.170;24.692;2023-06-22T10:53:10;100835.27;;;18.84;15.72
80640;BME280;69992;60.170;24.692;2023-06-22T10:55:36;100836.40;;;17.91;15.72
80640;BME280;69992;60.170;24.692;2023-06-22T10:58:01;100834.32;;;17.92;15.72
80640;BME280;69992;60.170;24.692;2023-06-22T11:00:26;100831.26;;;17.93;15.74
80640;BME280;69992;60.170;24.692;2023-06-22T11:02:52;100828.34;;;19.89;15.76
80640;BME280;69992;60.170;24.692;2023-06-22T11:05:17;100825.61;;;18.00;15.77
80640;BME280;69992;60.170;24.692;2023-06-22T11:07:43;100825.55;;;18.12;15.77
80640;BME280;69992;60.170;24.692;2023-06-22T11:10:08;100826.66;;;20.25;15.77
80640;BME280;69992;60.170;24.692;2023-06-22T11:12:33;100823.39;;;19.51;15.78
80640;BME280;69992;60.170;24.692;2023-06-22T11:14:58;100822.72;;;18.72;15.78
80640;BME280;69992;60.170;24.692;2023-06-22T11:17:25;100823.26;;;18.83;15.78
80640;BME280;69992;60.170;24.692;2023-06-22T11:19:50;100823.26;;;18.92;15.80
80640;BME280;69992;60.170;24.692;2023-06-22T11:22:16;100820.29;;;18.92;15.80
80640;BME280;69992;60.170;24.692;2023-06-22T11:24:41;100819.56;;;17.98;15.80
80640;BME280;69992;60.170;24.692;2023-06-22T11:27:06;100820.92;;;18.98;15.81
80640;BME280;69992;60.170;24.692;2023-06-22T11:29:31;100823.40;;;17.99;15.84
80640;BME280;69992;60.170;24.692;2023-06-22T11:31:57;100818.99;;;19.04;15.82
80640;BME280;69992;60.170;24.692;2023-06-22T11:34:22;100814.52;;;19.44;15.79
80640;BME280;69992;60.170;24.692;2023-06-22T11:36:47;100811.59;;;19.82;15.80
80640;BME280;69992;60.170;24.692;2023-06-22T11:39:13;100807.27;;;19.24;15.81
80640;BME280;69992;60.170;24.692;2023-06-22T11:41:38;100807.12;;;19.47;15.81
80640;BME280;69992;60.170;24.692;2023-06-22T11:44:04;100805.59;;;18.77;15.81
80640;BME280;69992;60.170;24.692;2023-06-22T11:46:29;100803.20;;;18.92;15.79
80640;BME280;69992;60.170;24.692;2023-06-22T11:48:55;100799.96;;;18.90;15.79
80640;BME280;69992;60.170;24.692;2023-06-22T11:51:20;100799.61;;;18.84;15.90
80640;BME280;69992;60.170;24.692;2023-06-22T11:53:45;100792.85;;;19.58;15.92
80640;BME280;69992;60.170;24.692;2023-06-22T11:56:10;100793.41;;;19.53;15.88
80640;BME280;69992;60.170;24.692;2023-06-22T11:58:36;100795.45;;;19.44;15.88
80640;BME280;69992;60.170;24.692;2023-06-22T12:01:01;100797.50;;;19.31;15.91
80640;BME280;69992;60.170;24.692;2023-06-22T12:03:26;100800.27;;;18.05;15.92
80640;BME280;69992;60.170;24.692;2023-06-22T12:05:52;100797.44;;;17.76;15.96
80640;BME280;69992;60.170;24.692;2023-06-22T12:08:17;100799.62;;;19.54;15.97
80640;BME280;69992;60.170;24.692;2023-06-22T12:10:42;100799.15;;;18.31;15.99
80640;BME280;69992;60.170;24.692;2023-06-22T12:13:07;100798.76;;;18.13;15.99
80640;BME280;69992;60.170;24.692;2023-06-22T12:15:33;100798.09;;;19.03;16.04
80640;BME280;69992;60.170;24.692;2023-06-22T12:17:58;100793.78;;;19.06;16.04
80640;BME280;69992;60.170;24.692;2023-06-22T12:20:24;100790.68;;;19.07;16.04
80640;BME280;69992;60.170;24.692;2023-06-22T12:22:49;100790.80;;;18.03;16.07
80640;BME280;69992;60.170;24.692;2023-06-22T12:25:15;100795.07;;;18.92;16.08
80640;BME280;69992;60.170;24.692;2023-06-22T12:27:40;100798.21;;;17.75;16.11
80640;BME280;69992;60.170;24.692;2023-06-22T12:30:06;100797.48;;;18.58;16.11